Wetterdaten: Donnerstag, 16.09.2010
Datum Zeit Temp. A. Feuchte A. Luftdruck Regen Wind Richtung Richtung Sonnenschein UV Solar Windben
16.09.2010 00:00 13,2 C 69 % 1004,6 hPa 0,0 mm 6,4 km/h (2 Bft) W-SW 247 0 min 0 UV-I 0 W/m 17,7 km/h (3 Bft)
16.09.2010 00:10 13,3 C 69 % 1004,6 hPa 0,0 mm 6,4 km/h (2 Bft) SW 225 0 min 0 UV-I 0 W/m 24,1 km/h (4 Bft)
16.09.2010 00:20 13,3 C 69 % 1004,5 hPa 0,0 mm 4,8 km/h (1 Bft) S-SW 202 0 min 0 UV-I 0 W/m 16,1 km/h (3 Bft)
16.09.2010 00:30 13,3 C 69 % 1004,5 hPa 0,0 mm 4,8 km/h (1 Bft) SW 225 0 min 0 UV-I 0 W/m 14,5 km/h (3 Bft)
16.09.2010 00:40 13,2 C 69 % 1004,5 hPa 0,0 mm 6,4 km/h (2 Bft) SW 225 0 min 0 UV-I 0 W/m 19,3 km/h (3 Bft)
16.09.2010 00:50 13,2 C 69 % 1004,4 hPa 0,0 mm 4,8 km/h (1 Bft) W-SW 247 0 min 0 UV-I 0 W/m 17,7 km/h (3 Bft)
16.09.2010 01:00 13,2 C 70 % 1004,3 hPa 0,0 mm 6,4 km/h (2 Bft) W-SW 247 0 min 0 UV-I 0 W/m 22,5 km/h (4 Bft)
16.09.2010 01:10 13,2 C 73 % 1004,3 hPa 0,0 mm 6,4 km/h (2 Bft) S-SW 202 0 min 0 UV-I 0 W/m 17,7 km/h (3 Bft)
16.09.2010 01:20 12,8 C 75 % 1004,0 hPa 0,3 mm 4,8 km/h (1 Bft) S-SW 202 0 min 0 UV-I 0 W/m 17,7 km/h (3 Bft)
16.09.2010 01:30 12,6 C 77 % 1003,9 hPa 0,0 mm 4,8 km/h (1 Bft) W-SW 247 0 min 0 UV-I 0 W/m 24,1 km/h (4 Bft)
16.09.2010 01:40 12,4 C 78 % 1003,8 hPa 0,0 mm 4,8 km/h (1 Bft) W-SW 247 0 min 0 UV-I 0 W/m 20,9 km/h (4 Bft)
16.09.2010 01:50 12,4 C 78 % 1003,9 hPa 0,3 mm 6,4 km/h (2 Bft) SW 225 0 min 0 UV-I 0 W/m 17,7 km/h (3 Bft)
16.09.2010 02:00 12,4 C 79 % 1003,9 hPa 0,3 mm 9,7 km/h (2 Bft) SW 225 0 min 0 UV-I 0 W/m 22,5 km/h (4 Bft)
16.09.2010 02:10 12,2 C 81 % 1003,8 hPa 0,3 mm 8,0 km/h (2 Bft) W-SW 247 0 min 0 UV-I 0 W/m 24,1 km/h (4 Bft)
16.09.2010 02:20 12,1 C 82 % 1003,6 hPa 0,0 mm 8,0 km/h (2 Bft) W 270 0 min 0 UV-I 0 W/m 35,4 km/h (5 Bft)
16.09.2010 02:30 11,9 C 83 % 1003,5 hPa 0,0 mm 6,4 km/h (2 Bft) SW 225 0 min 0 UV-I 0 W/m 20,9 km/h (4 Bft)
16.09.2010 02:40 11,9 C 84 % 1004,4 hPa 1,3 mm 9,7 km/h (2 Bft) W-SW 247 0 min 0 UV-I 0 W/m 27,4 km/h (4 Bft)
16.09.2010 02:50 11,7 C 86 % 1004,7 hPa 0,5 mm 9,7 km/h (2 Bft) W-NW 292 0 min 0 UV-I 0 W/m 25,7 km/h (4 Bft)
16.09.2010 03:00 11,3 C 87 % 1004,9 hPa 0,0 mm 6,4 km/h (2 Bft) W 270 0 min 0 UV-I 0 W/m 19,3 km/h (3 Bft)
16.09.2010 03:10 11,0 C 88 % 1004,8 hPa 0,5 mm 4,8 km/h (1 Bft) W 270 0 min 0 UV-I 0 W/m 14,5 km/h (3 Bft)
16.09.2010 03:20 10,8 C 89 % 1005,2 hPa 0,5 mm 6,4 km/h (2 Bft) W 270 0 min 0 UV-I 0 W/m 19,3 km/h (3 Bft)
16.09.2010 03:30 10,7 C 89 % 1005,5 hPa 0,8 mm 4,8 km/h (1 Bft) W 270 0 min 0 UV-I 0 W/m 22,5 km/h (4 Bft)
16.09.2010 03:40 10,4 C 89 % 1006,0 hPa 0,8 mm 8,0 km/h (2 Bft) W-NW 292 0 min 0 UV-I 0 W/m 29,0 km/h (5 Bft)
16.09.2010 03:50 10,1 C 89 % 1006,0 hPa 0,5 mm 6,4 km/h (2 Bft) W-NW 292 0 min 0 UV-I 0 W/m 20,9 km/h (4 Bft)
16.09.2010 04:00 9,6 C 90 % 1005,6 hPa 0,3 mm 3,2 km/h (1 Bft) W-NW 292 0 min 0 UV-I 0 W/m 14,5 km/h (3 Bft)
16.09.2010 04:10 9,6 C 90 % 1006,3 hPa 0,0 mm 1,6 km/h (1 Bft) W 270 0 min 0 UV-I 0 W/m 8,0 km/h (2 Bft)
16.09.2010 04:20 9,8 C 91 % 1006,4 hPa 0,0 mm 3,2 km/h (1 Bft) W 270 0 min 0 UV-I 0 W/m 11,3 km/h (2 Bft)
16.09.2010 04:30 10,0 C 91 % 1006,4 hPa 0,0 mm 1,6 km/h (1 Bft) W-SW 247 0 min 0 UV-I 0 W/m 9,7 km/h (2 Bft)
16.09.2010 04:40 10,1 C 91 % 1006,3 hPa 0,0 mm 3,2 km/h (1 Bft) W-SW 247 0 min 0 UV-I 0 W/m 11,3 km/h (2 Bft)
16.09.2010 04:50 9,9 C 91 % 1006,3 hPa 0,0 mm 1,6 km/h (1 Bft) SW 225 0 min 0 UV-I 0 W/m 9,7 km/h (2 Bft)
16.09.2010 05:00 9,9 C 91 % 1006,4 hPa 0,0 mm 3,2 km/h (1 Bft) W-SW 247 0 min 0 UV-I 0 W/m 14,5 km/h (3 Bft)
16.09.2010 05:10 9,7 C 91 % 1006,3 hPa 0,0 mm 1,6 km/h (1 Bft) W-SW 247 0 min 0 UV-I 0 W/m 8,0 km/h (2 Bft)
16.09.2010 05:20 9,5 C 91 % 1006,4 hPa 0,0 mm 1,6 km/h (1 Bft) W-SW 247 0 min 0 UV-I 0 W/m 8,0 km/h (2 Bft)
16.09.2010 05:30 9,3 C 91 % 1006,5 hPa 0,0 mm 0,0 km/h (0 Bft) W-SW 247 0 min 0 UV-I 0 W/m 6,4 km/h (2 Bft)
16.09.2010 05:40 9,2 C 91 % 1006,5 hPa 0,0 mm 1,6 km/h (1 Bft) W-SW 247 0 min 0 UV-I 0 W/m 6,4 km/h (2 Bft)
16.09.2010 05:50 9,1 C 92 % 1006,5 hPa 0,0 mm 1,6 km/h (1 Bft) W-SW 247 0 min 0 UV-I 0 W/m 6,4 km/h (2 Bft)
16.09.2010 06:00 8,9 C 92 % 1006,6 hPa 0,0 mm 0,0 km/h (0 Bft) SW 225 0 min 0 UV-I 0 W/m 6,4 km/h (2 Bft)
16.09.2010 06:10 8,8 C 92 % 1006,6 hPa 0,0 mm 1,6 km/h (1 Bft) W-SW 247 0 min 0 UV-I 0 W/m 8,0 km/h (2 Bft)
16.09.2010 06:20 8,7 C 92 % 1006,5 hPa 0,0 mm 1,6 km/h (1 Bft) SW 225 0 min 0 UV-I 0 W/m 9,7 km/h (2 Bft)
16.09.2010 06:30 8,6 C 92 % 1006,6 hPa 0,0 mm 0,0 km/h (0 Bft) S-SW 202 0 min 0 UV-I 0 W/m 4,8 km/h (1 Bft)
16.09.2010 06:40 8,4 C 92 % 1006,7 hPa 0,0 mm 0,0 km/h (0 Bft) SW 225 0 min 0 UV-I 0 W/m 4,8 km/h (1 Bft)
16.09.2010 06:50 8,2 C 92 % 1006,8 hPa 0,0 mm 0,0 km/h (0 Bft) SW 225 0 min 0 UV-I 0 W/m 1,6 km/h (1 Bft)
16.09.2010 07:00 8,1 C 92 % 1007,0 hPa 0,0 mm 0,0 km/h (0 Bft) SW 225 0 min 0 UV-I 0 W/m 3,2 km/h (1 Bft)
16.09.2010 07:10 8,0 C 92 % 1007,2 hPa 0,0 mm 0,0 km/h (0 Bft) SW 225 0 min 0 UV-I 5 W/m 3,2 km/h (1 Bft)
16.09.2010 07:20 7,9 C 92 % 1007,3 hPa 0,0 mm 1,6 km/h (1 Bft) W-SW 247 0 min 0 UV-I 7 W/m 6,4 km/h (2 Bft)
16.09.2010 07:30 7,9 C 92 % 1007,3 hPa 0,0 mm 1,6 km/h (1 Bft) W-SW 247 0 min 0 UV-I 11 W/m 6,4 km/h (2 Bft)
16.09.2010 07:40 7,9 C 92 % 1007,3 hPa 0,0 mm 0,0 km/h (0 Bft) W-SW 247 0 min 0 UV-I 14 W/m 4,8 km/h (1 Bft)
16.09.2010 07:50 7,9 C 92 % 1007,3 hPa 0,0 mm 0,0 km/h (0 Bft) W-SW 247 0 min 0 UV-I 53 W/m 1,6 km/h (1 Bft)
16.09.2010 08:00 8,1 C 92 % 1007,6 hPa 0,0 mm 0,1 km/h (0 Bft) W-SW 248 0 min 0 UV-I 47 W/m 1,6 km/h (1 Bft)
16.09.2010 08:10 8,2 C 92 % 1007,8 hPa 0,0 mm 0,0 km/h (0 Bft) W-SW 247 0 min 0 UV-I 44 W/m 4,8 km/h (1 Bft)
16.09.2010 08:20 8,4 C 92 % 1007,9 hPa 0,0 mm 0,0 km/h (0 Bft) W-SW 247 0 min 0 UV-I 81 W/m 1,6 km/h (1 Bft)
16.09.2010 08:30 8,6 C 91 % 1007,9 hPa 0,0 mm 1,6 km/h (1 Bft) W-SW 247 0 min 1 UV-I 69 W/m 6,4 km/h (2 Bft)
16.09.2010 08:40 8,9 C 91 % 1008,1 hPa 0,0 mm 0,0 km/h (0 Bft) W-SW 247 0 min 1 UV-I 67 W/m 4,8 km/h (1 Bft)
16.09.2010 08:50 9,3 C 89 % 1008,0 hPa 0,0 mm 1,6 km/h (1 Bft) SW 225 0 min 1 UV-I 137 W/m 6,4 km/h (2 Bft)
16.09.2010 09:00 9,7 C 88 % 1008,0 hPa 0,0 mm 1,6 km/h (1 Bft) SW 225 10 min 1 UV-I 183 W/m 9,7 km/h (2 Bft)
16.09.2010 09:10 10,1 C 86 % 1008,2 hPa 0,0 mm 3,2 km/h (1 Bft) SW 225 10 min 1 UV-I 202 W/m 11,3 km/h (2 Bft)
16.09.2010 09:20 10,5 C 85 % 1008,4 hPa 0,0 mm 3,2 km/h (1 Bft) S-SW 202 10 min 1 UV-I 236 W/m 8,0 km/h (2 Bft)
16.09.2010 09:30 10,9 C 84 % 1008,5 hPa 0,0 mm 3,2 km/h (1 Bft) S-SW 202 10 min 1 UV-I 250 W/m 14,5 km/h (3 Bft)
16.09.2010 09:40 11,4 C 84 % 1008,5 hPa 0,0 mm 3,2 km/h (1 Bft) W 270 10 min 1 UV-I 306 W/m 14,5 km/h (3 Bft)
16.09.2010 09:50 11,9 C 83 % 1008,5 hPa 0,0 mm 6,4 km/h (2 Bft) W-SW 247 10 min 1 UV-I 322 W/m 16,1 km/h (3 Bft)
16.09.2010 10:00 12,2 C 82 % 1008,6 hPa 0,0 mm 6,4 km/h (2 Bft) W-SW 247 10 min 2 UV-I 346 W/m 19,3 km/h (3 Bft)
16.09.2010 10:10 12,4 C 81 % 1008,6 hPa 0,0 mm 8,0 km/h (2 Bft) W-SW 247 10 min 2 UV-I 418 W/m 19,3 km/h (3 Bft)
16.09.2010 10:20 12,6 C 82 % 1008,6 hPa 0,0 mm 6,4 km/h (2 Bft) W 270 10 min 2 UV-I 422 W/m 20,9 km/h (4 Bft)
16.09.2010 10:30 12,6 C 80 % 1008,6 hPa 0,0 mm 9,7 km/h (2 Bft) W-SW 247 0 min 2 UV-I 257 W/m 25,7 km/h (4 Bft)
16.09.2010 10:40 12,6 C 80 % 1008,8 hPa 0,0 mm 6,4 km/h (2 Bft) W-SW 247 10 min 2 UV-I 297 W/m 24,1 km/h (4 Bft)
16.09.2010 10:50 13,1 C 77 % 1008,6 hPa 0,0 mm 8,0 km/h (2 Bft) SW 225 10 min 2 UV-I 619 W/m 22,5 km/h (4 Bft)
16.09.2010 11:00 13,3 C 78 % 1008,7 hPa 0,0 mm 9,7 km/h (2 Bft) W-SW 247 10 min 2 UV-I 519 W/m 27,4 km/h (4 Bft)
16.09.2010 11:10 13,4 C 76 % 1009,0 hPa 0,0 mm 9,7 km/h (2 Bft) W 270 10 min 2 UV-I 334 W/m 24,1 km/h (4 Bft)
16.09.2010 11:20 13,3 C 77 % 1009,0 hPa 0,0 mm 9,7 km/h (2 Bft) W-SW 247 0 min 1 UV-I 195 W/m 25,7 km/h (4 Bft)
16.09.2010 11:30 13,2 C 77 % 1009,0 hPa 0,0 mm 9,7 km/h (2 Bft) W 270 0 min 1 UV-I 162 W/m 22,5 km/h (4 Bft)
16.09.2010 11:40 13,1 C 78 % 1008,8 hPa 0,0 mm 6,4 km/h (2 Bft) W 270 0 min 1 UV-I 116 W/m 22,5 km/h (4 Bft)
16.09.2010 11:50 13,0 C 80 % 1008,7 hPa 0,0 mm 4,8 km/h (1 Bft) W 270 0 min 2 UV-I 185 W/m 17,7 km/h (3 Bft)
16.09.2010 12:00 13,3 C 78 % 1008,7 hPa 0,0 mm 8,0 km/h (2 Bft) W 270 0 min 2 UV-I 163 W/m 24,1 km/h (4 Bft)
16.09.2010 12:10 13,3 C 79 % 1008,7 hPa 0,0 mm 3,2 km/h (1 Bft) W 270 0 min 1 UV-I 155 W/m 11,3 km/h (2 Bft)
16.09.2010 12:20 13,4 C 79 % 1008,5 hPa 0,0 mm 4,8 km/h (1 Bft) SW 225 0 min 1 UV-I 139 W/m 20,9 km/h (4 Bft)
16.09.2010 12:30 13,3 C 81 % 1008,6 hPa 0,0 mm 6,4 km/h (2 Bft) W-SW 247 0 min 2 UV-I 230 W/m 22,5 km/h (4 Bft)
16.09.2010 12:40 13,4 C 80 % 1008,6 hPa 0,0 mm 4,8 km/h (1 Bft) W 270 10 min 3 UV-I 411 W/m 14,5 km/h (3 Bft)
16.09.2010 12:50 13,6 C 80 % 1008,6 hPa 0,0 mm 4,8 km/h (1 Bft) W 270 0 min 2 UV-I 149 W/m 17,7 km/h (3 Bft)
16.09.2010 13:00 13,4 C 79 % 1008,5 hPa 0,0 mm 6,4 km/h (2 Bft) W 270 0 min 2 UV-I 134 W/m 25,7 km/h (4 Bft)
16.09.2010 13:10 13,5 C 78 % 1008,4 hPa 0,0 mm 8,0 km/h (2 Bft) W 270 10 min 3 UV-I 680 W/m 20,9 km/h (4 Bft)
16.09.2010 13:20 14,7 C 73 % 1008,1 hPa 0,0 mm 4,8 km/h (1 Bft) W-SW 247 10 min 3 UV-I 687 W/m 17,7 km/h (3 Bft)
16.09.2010 13:30 15,2 C 74 % 1008,1 hPa 0,0 mm 6,4 km/h (2 Bft) W-SW 247 0 min 3 UV-I 171 W/m 20,9 km/h (4 Bft)
16.09.2010 13:40 14,6 C 75 % 1008,0 hPa 0,0 mm 4,8 km/h (1 Bft) S-SW 202 0 min 3 UV-I 234 W/m 17,7 km/h (3 Bft)
16.09.2010 13:50 15,3 C 69 % 1007,9 hPa 0,0 mm 6,4 km/h (2 Bft) W 270 10 min 4 UV-I 747 W/m 17,7 km/h (3 Bft)
16.09.2010 14:00 16,2 C 66 % 1007,9 hPa 0,0 mm 11,3 km/h (2 Bft) W-SW 247 10 min 4 UV-I 642 W/m 25,7 km/h (4 Bft)
16.09.2010 14:10 16,6 C 63 % 1007,8 hPa 0,0 mm 9,7 km/h (2 Bft) W-SW 247 10 min 4 UV-I 677 W/m 27,4 km/h (4 Bft)
16.09.2010 14:20 16,7 C 61 % 1007,7 hPa 0,0 mm 9,7 km/h (2 Bft) W 270 10 min 3 UV-I 758 W/m 24,1 km/h (4 Bft)
16.09.2010 14:30 16,8 C 60 % 1007,7 hPa 0,0 mm 9,7 km/h (2 Bft) W 270 10 min 3 UV-I 775 W/m 25,7 km/h (4 Bft)
16.09.2010 14:40 16,5 C 61 % 1007,6 hPa 0,0 mm 11,3 km/h (2 Bft) W 270 0 min 3 UV-I 304 W/m 25,7 km/h (4 Bft)
16.09.2010 14:50 16,3 C 62 % 1007,5 hPa 0,0 mm 11,3 km/h (2 Bft) W-SW 247 10 min 3 UV-I 721 W/m 30,6 km/h (5 Bft)
16.09.2010 15:00 16,8 C 59 % 1007,5 hPa 0,0 mm 11,3 km/h (2 Bft) W-SW 247 10 min 3 UV-I 722 W/m 30,6 km/h (5 Bft)
16.09.2010 15:10 17,3 C 59 % 1007,5 hPa 0,0 mm 9,7 km/h (2 Bft) W-SW 247 10 min 3 UV-I 700 W/m 22,5 km/h (4 Bft)
16.09.2010 15:20 17,3 C 59 % 1007,3 hPa 0,0 mm 8,0 km/h (2 Bft) W 270 10 min 3 UV-I 675 W/m 22,5 km/h (4 Bft)
16.09.2010 15:30 16,7 C 61 % 1007,3 hPa 0,0 mm 9,7 km/h (2 Bft) W 270 0 min 2 UV-I 258 W/m 25,7 km/h (4 Bft)
16.09.2010 15:40 16,3 C 62 % 1007,5 hPa 0,0 mm 6,4 km/h (2 Bft) W-SW 247 0 min 1 UV-I 220 W/m 20,9 km/h (4 Bft)
16.09.2010 15:50 16,2 C 62 % 1007,4 hPa 0,0 mm 11,3 km/h (2 Bft) W-SW 247 0 min 1 UV-I 132 W/m 29,0 km/h (5 Bft)
16.09.2010 16:00 15,7 C 66 % 1007,5 hPa 0,0 mm 4,6 km/h (1 Bft) W 279 0 min 1 UV-I 63 W/m 11,3 km/h (2 Bft)
16.09.2010 16:10 15,3 C 72 % 1007,6 hPa 0,0 mm 8,0 km/h (2 Bft) W 270 0 min 1 UV-I 76 W/m 25,7 km/h (4 Bft)
16.09.2010 16:20 14,4 C 77 % 1007,6 hPa 0,3 mm 4,8 km/h (1 Bft) W 270 0 min 1 UV-I 83 W/m 17,7 km/h (3 Bft)
16.09.2010 16:30 13,9 C 78 % 1007,3 hPa 0,0 mm 4,8 km/h (1 Bft) W-SW 247 0 min 1 UV-I 105 W/m 17,7 km/h (3 Bft)
16.09.2010 16:40 14,1 C 79 % 1007,1 hPa 0,0 mm 1,6 km/h (1 Bft) W-SW 247 10 min 1 UV-I 545 W/m 11,3 km/h (2 Bft)
16.09.2010 16:50 14,9 C 74 % 1007,2 hPa 0,0 mm 3,2 km/h (1 Bft) W 270 10 min 1 UV-I 557 W/m 11,3 km/h (2 Bft)
16.09.2010 17:00 15,9 C 70 % 1006,9 hPa 0,0 mm 4,8 km/h (1 Bft) W 270 10 min 1 UV-I 425 W/m 11,3 km/h (2 Bft)
16.09.2010 17:10 16,4 C 68 % 1007,0 hPa 0,0 mm 4,8 km/h (1 Bft) W-SW 247 10 min 1 UV-I 387 W/m 19,3 km/h (3 Bft)
16.09.2010 17:20 16,2 C 68 % 1006,9 hPa 0,0 mm 6,4 km/h (2 Bft) W 270 10 min 1 UV-I 417 W/m 17,7 km/h (3 Bft)
16.09.2010 17:30 16,2 C 67 % 1006,9 hPa 0,0 mm 6,4 km/h (2 Bft) W-SW 247 10 min 1 UV-I 211 W/m 17,7 km/h (3 Bft)
16.09.2010 17:40 15,9 C 65 % 1006,9 hPa 0,0 mm 8,0 km/h (2 Bft) W-SW 247 10 min 1 UV-I 336 W/m 27,4 km/h (4 Bft)
16.09.2010 17:50 15,9 C 65 % 1007,0 hPa 0,0 mm 11,3 km/h (2 Bft) W-SW 247 10 min 1 UV-I 308 W/m 30,6 km/h (5 Bft)
16.09.2010 18:00 16,0 C 66 % 1007,1 hPa 0,0 mm 6,4 km/h (2 Bft) SW 225 10 min 1 UV-I 292 W/m 19,3 km/h (3 Bft)
16.09.2010 18:10 15,7 C 68 % 1007,0 hPa 0,0 mm 4,8 km/h (1 Bft) W-SW 247 10 min 0 UV-I 178 W/m 11,3 km/h (2 Bft)
16.09.2010 18:20 15,4 C 69 % 1007,0 hPa 0,0 mm 4,8 km/h (1 Bft) S-SW 202 0 min 0 UV-I 77 W/m 19,3 km/h (3 Bft)
16.09.2010 18:30 15,1 C 70 % 1007,2 hPa 0,0 mm 4,8 km/h (1 Bft) W-SW 247 0 min 0 UV-I 21 W/m 17,7 km/h (3 Bft)
16.09.2010 18:40 14,9 C 70 % 1007,4 hPa 0,0 mm 6,4 km/h (2 Bft) W 270 0 min 0 UV-I 0 W/m 17,7 km/h (3 Bft)
16.09.2010 18:50 14,4 C 72 % 1007,6 hPa 0,0 mm 6,4 km/h (2 Bft) W 270 0 min 0 UV-I 0 W/m 17,7 km/h (3 Bft)
16.09.2010 19:00 13,8 C 74 % 1007,6 hPa 0,0 mm 6,4 km/h (2 Bft) W 270 0 min 0 UV-I 0 W/m 19,3 km/h (3 Bft)
16.09.2010 19:10 13,4 C 75 % 1007,7 hPa 0,0 mm 6,4 km/h (2 Bft) W 270 0 min 0 UV-I 0 W/m 19,3 km/h (3 Bft)
16.09.2010 19:20 13,0 C 80 % 1007,7 hPa 0,3 mm 3,2 km/h (1 Bft) W 270 0 min 0 UV-I 0 W/m 17,7 km/h (3 Bft)
16.09.2010 19:30 12,3 C 83 % 1007,6 hPa 0,3 mm 3,2 km/h (1 Bft) W 270 0 min 0 UV-I 0 W/m 16,1 km/h (3 Bft)
16.09.2010 19:40 11,9 C 85 % 1007,6 hPa 0,0 mm 1,6 km/h (1 Bft) W 270 0 min 0 UV-I 0 W/m 6,4 km/h (2 Bft)
16.09.2010 19:50 11,8 C 86 % 1007,7 hPa 0,0 mm 0,0 km/h (0 Bft) W-SW 247 0 min 0 UV-I 0 W/m 4,8 km/h (1 Bft)
16.09.2010 20:00 11,7 C 87 % 1007,7 hPa 0,0 mm 0,0 km/h (0 Bft) W-SW 247 0 min 0 UV-I 0 W/m 4,8 km/h (1 Bft)
16.09.2010 20:10 11,6 C 88 % 1007,8 hPa 0,0 mm 0,0 km/h (0 Bft) W-SW 247 0 min 0 UV-I 0 W/m 3,2 km/h (1 Bft)
16.09.2010 20:20 11,6 C 88 % 1007,7 hPa 0,0 mm 0,0 km/h (0 Bft) SW 225 0 min 0 UV-I 0 W/m 6,4 km/h (2 Bft)
16.09.2010 20:30 11,6 C 88 % 1007,9 hPa 0,0 mm 1,6 km/h (1 Bft) W-SW 247 0 min 0 UV-I 0 W/m 6,4 km/h (2 Bft)
16.09.2010 20:40 11,7 C 89 % 1007,9 hPa 0,0 mm 1,6 km/h (1 Bft) W-SW 247 0 min 0 UV-I 0 W/m 8,0 km/h (2 Bft)
16.09.2010 20:50 11,8 C 89 % 1007,9 hPa 0,0 mm 1,6 km/h (1 Bft) W-SW 247 0 min 0 UV-I 0 W/m 6,4 km/h (2 Bft)
16.09.2010 21:00 11,8 C 89 % 1008,1 hPa 0,0 mm 0,0 km/h (0 Bft) W-SW 247 0 min 0 UV-I 0 W/m 6,4 km/h (2 Bft)
16.09.2010 21:10 11,9 C 89 % 1008,0 hPa 0,0 mm 1,6 km/h (1 Bft) W-SW 247 0 min 0 UV-I 0 W/m 9,7 km/h (2 Bft)
16.09.2010 21:20 11,9 C 88 % 1008,0 hPa 0,0 mm 1,6 km/h (1 Bft) W-SW 247 0 min 0 UV-I 0 W/m 9,7 km/h (2 Bft)
16.09.2010 21:30 11,9 C 89 % 1008,0 hPa 0,0 mm 0,0 km/h (0 Bft) SW 225 0 min 0 UV-I 0 W/m 4,8 km/h (1 Bft)
16.09.2010 21:40 11,9 C 89 % 1008,1 hPa 0,0 mm 0,0 km/h (0 Bft) SW 225 0 min 0 UV-I 0 W/m 4,8 km/h (1 Bft)
16.09.2010 21:50 11,9 C 89 % 1008,1 hPa 0,0 mm 0,0 km/h (0 Bft) SW 225 0 min 0 UV-I 0 W/m 3,2 km/h (1 Bft)
16.09.2010 22:00 12,0 C 89 % 1008,1 hPa 0,0 mm 0,0 km/h (0 Bft) S-SW 202 0 min 0 UV-I 0 W/m 4,8 km/h (1 Bft)
16.09.2010 22:10 12,0 C 89 % 1008,2 hPa 0,0 mm 1,6 km/h (1 Bft) SW 225 0 min 0 UV-I 0 W/m 6,4 km/h (2 Bft)
16.09.2010 22:20 11,9 C 89 % 1008,3 hPa 0,0 mm 1,6 km/h (1 Bft) SW 225 0 min 0 UV-I 0 W/m 9,7 km/h (2 Bft)
16.09.2010 22:30 11,9 C 88 % 1008,3 hPa 0,0 mm 1,6 km/h (1 Bft) SW 225 0 min 0 UV-I 0 W/m 8,0 km/h (2 Bft)
16.09.2010 22:40 11,8 C 88 % 1008,3 hPa 0,0 mm 1,6 km/h (1 Bft) W-SW 247 0 min 0 UV-I 0 W/m 6,4 km/h (2 Bft)
16.09.2010 22:50 11,8 C 88 % 1008,3 hPa 0,0 mm 1,6 km/h (1 Bft) S-SW 202 0 min 0 UV-I 0 W/m 8,0 km/h (2 Bft)
16.09.2010 23:00 11,8 C 88 % 1008,3 hPa 0,3 mm 0,0 km/h (0 Bft) S-SW 202 0 min 0 UV-I 0 W/m 6,4 km/h (2 Bft)
16.09.2010 23:10 11,8 C 89 % 1008,3 hPa 0,0 mm 1,6 km/h (1 Bft) S-SW 202 0 min 0 UV-I 0 W/m 8,0 km/h (2 Bft)
16.09.2010 23:20 11,7 C 89 % 1008,3 hPa 0,0 mm 0,0 km/h (0 Bft) S-SW 202 0 min 0 UV-I 0 W/m 4,8 km/h (1 Bft)
16.09.2010 23:30 11,6 C 90 % 1008,3 hPa 0,0 mm 0,0 km/h (0 Bft) S-SW 202 0 min 0 UV-I 0 W/m 4,8 km/h (1 Bft)
16.09.2010 23:40 11,6 C 90 % 1008,2 hPa 0,3 mm 0,0 km/h (0 Bft) SW 225 0 min 0 UV-I 0 W/m 1,6 km/h (1 Bft)
16.09.2010 23:50 11,6 C 90 % 1008,2 hPa 0,0 mm 0,0 km/h (0 Bft) SW 225 0 min 0 UV-I 0 W/m 4,8 km/h (1 Bft)
_ Min-Zeit 07:20 15:00 02:30 - 05:30 - - - - - 06:50
Minimum _ 7,9 C 59 % 1003,5 hPa - 0,0 km/h (0 Bft) - - - - - 1,6 km/h (1 Bft)
_ Max-Zeit 15:10 05:50 11:10 02:40 14:00 - - 09:00 13:50 14:30 02:20
Maximum _ 17,4 C 92 % 1009,0 hPa 1,3 mm 11,3 km/h
W-SW (2 Bft)
- - 10 min 4 UV-I 775 W/m 35,4 km/h
W (5 Bft)
Durchschnitt _ 12,4 C 81 % 1007,2 hPa #7,4 mm 4,4 km/h (1 Bft) W-SW - #5:50 h 2 UV-I 297 W/m 15,0 km/h (3 Bft)